sensor_id;sensor_type;location;lat;lon;timestamp;P1;durP1;ratioP1;P2;durP2;ratioP2
15816;SDS011;8009;50.070;8.232;2022-10-31T00:01:10;25.20;;;24.03;;
15816;SDS011;8009;50.070;8.232;2022-10-31T00:03:38;26.13;;;24.93;;
15816;SDS011;8009;50.070;8.232;2022-10-31T00:06:07;25.70;;;24.57;;
15816;SDS011;8009;50.070;8.232;2022-10-31T00:08:35;25.90;;;24.80;;
15816;SDS011;8009;50.070;8.232;2022-10-31T00:11:07;25.60;;;24.37;;
15816;SDS011;8009;50.070;8.232;2022-10-31T00:13:36;24.57;;;23.37;;
15816;SDS011;8009;50.070;8.232;2022-10-31T00:16:05;21.10;;;20.20;;
15816;SDS011;8009;50.070;8.232;2022-10-31T00:18:40;23.10;;;22.07;;
15816;SDS011;8009;50.070;8.232;2022-10-31T00:21:08;24.87;;;23.83;;
15816;SDS011;8009;50.070;8.232;2022-10-31T00:23:36;23.77;;;22.73;;
15816;SDS011;8009;50.070;8.232;2022-10-31T00:26:07;25.60;;;24.40;;
15816;SDS011;8009;50.070;8.232;2022-10-31T00:28:35;22.92;;;21.92;;
15816;SDS011;8009;50.070;8.232;2022-10-31T00:31:05;23.77;;;22.77;;
15816;SDS011;8009;50.070;8.232;2022-10-31T00:33:36;24.80;;;23.60;;
15816;SDS011;8009;50.070;8.232;2022-10-31T00:36:05;23.47;;;22.47;;
15816;SDS011;8009;50.070;8.232;2022-10-31T00:38:35;23.27;;;22.20;;
15816;SDS011;8009;50.070;8.232;2022-10-31T00:41:03;26.57;;;25.37;;
15816;SDS011;8009;50.070;8.232;2022-10-31T00:43:34;28.33;;;26.77;;
15816;SDS011;8009;50.070;8.232;2022-10-31T00:46:03;25.10;;;23.93;;
15816;SDS011;8009;50.070;8.232;2022-10-31T00:48:31;23.83;;;22.80;;
15816;SDS011;8009;50.070;8.232;2022-10-31T00:50:59;25.43;;;24.23;;
15816;SDS011;8009;50.070;8.232;2022-10-31T00:53:28;21.40;;;20.43;;
15816;SDS011;8009;50.070;8.232;2022-10-31T00:55:56;21.40;;;20.40;;
15816;SDS011;8009;50.070;8.232;2022-10-31T00:58:24;21.83;;;20.90;;
15816;SDS011;8009;50.070;8.232;2022-10-31T01:00:56;19.70;;;18.80;;
15816;SDS011;8009;50.070;8.232;2022-10-31T01:03:25;24.00;;;22.90;;
15816;SDS011;8009;50.070;8.232;2022-10-31T01:05:55;22.17;;;20.97;;
15816;SDS011;8009;50.070;8.232;2022-10-31T01:08:27;21.77;;;20.87;;
15816;SDS011;8009;50.070;8.232;2022-10-31T01:10:59;23.83;;;22.80;;
15816;SDS011;8009;50.070;8.232;2022-10-31T01:13:29;22.27;;;21.20;;
15816;SDS011;8009;50.070;8.232;2022-10-31T01:16:00;21.17;;;20.27;;
15816;SDS011;8009;50.070;8.232;2022-10-31T01:18:30;21.60;;;20.63;;
15816;SDS011;8009;50.070;8.232;2022-10-31T01:20:59;21.10;;;20.17;;
15816;SDS011;8009;50.070;8.232;2022-10-31T01:23:29;22.67;;;21.53;;
15816;SDS011;8009;50.070;8.232;2022-10-31T01:26:06;24.77;;;23.73;;
15816;SDS011;8009;50.070;8.232;2022-10-31T01:28:36;18.97;;;18.20;;
15816;SDS011;8009;50.070;8.232;2022-10-31T01:31:14;22.23;;;21.30;;
15816;SDS011;8009;50.070;8.232;2022-10-31T01:33:42;20.50;;;19.50;;
15816;SDS011;8009;50.070;8.232;2022-10-31T01:36:15;26.73;;;25.58;;
15816;SDS011;8009;50.070;8.232;2022-10-31T01:38:45;22.87;;;21.87;;
15816;SDS011;8009;50.070;8.232;2022-10-31T01:41:16;24.13;;;23.13;;
15816;SDS011;8009;50.070;8.232;2022-10-31T01:43:47;25.43;;;24.33;;
15816;SDS011;8009;50.070;8.232;2022-10-31T01:46:20;26.40;;;25.30;;
15816;SDS011;8009;50.070;8.232;2022-10-31T01:48:52;22.87;;;21.87;;
15816;SDS011;8009;50.070;8.232;2022-10-31T01:51:23;24.43;;;23.27;;
15816;SDS011;8009;50.070;8.232;2022-10-31T01:53:56;25.23;;;24.03;;
15816;SDS011;8009;50.070;8.232;2022-10-31T01:56:28;24.03;;;23.03;;
15816;SDS011;8009;50.070;8.232;2022-10-31T01:58:56;21.33;;;20.43;;
15816;SDS011;8009;50.070;8.232;2022-10-31T02:01:29;22.63;;;21.63;;
15816;SDS011;8009;50.070;8.232;2022-10-31T02:03:58;22.80;;;21.80;;
15816;SDS011;8009;50.070;8.232;2022-10-31T02:06:27;19.77;;;18.97;;
15816;SDS011;8009;50.070;8.232;2022-10-31T02:09:04;21.57;;;20.67;;
15816;SDS011;8009;50.070;8.232;2022-10-31T02:11:34;22.43;;;21.47;;
15816;SDS011;8009;50.070;8.232;2022-10-31T02:14:04;21.50;;;20.60;;
15816;SDS011;8009;50.070;8.232;2022-10-31T02:16:35;18.47;;;17.67;;
15816;SDS011;8009;50.070;8.232;2022-10-31T02:19:03;19.43;;;18.63;;
15816;SDS011;8009;50.070;8.232;2022-10-31T02:21:37;20.00;;;19.10;;
15816;SDS011;8009;50.070;8.232;2022-10-31T02:24:17;19.43;;;18.50;;
15816;SDS011;8009;50.070;8.232;2022-10-31T02:27:17;21.90;;;20.80;;
15816;SDS011;8009;50.070;8.232;2022-10-31T02:30:04;22.40;;;21.33;;
15816;SDS011;8009;50.070;8.232;2022-10-31T02:32:54;22.03;;;21.03;;
15816;SDS011;8009;50.070;8.232;2022-10-31T02:35:37;18.63;;;17.73;;
15816;SDS011;8009;50.070;8.232;2022-10-31T02:38:13;19.27;;;18.47;;
15816;SDS011;8009;50.070;8.232;2022-10-31T02:40:52;27.13;;;25.92;;
15816;SDS011;8009;50.070;8.232;2022-10-31T02:43:27;23.43;;;22.43;;
15816;SDS011;8009;50.070;8.232;2022-10-31T02:46:01;24.17;;;23.17;;
15816;SDS011;8009;50.070;8.232;2022-10-31T02:48:40;22.20;;;21.27;;
15816;SDS011;8009;50.070;8.232;2022-10-31T02:51:12;19.73;;;18.87;;
15816;SDS011;8009;50.070;8.232;2022-10-31T02:53:41;20.77;;;19.90;;
15816;SDS011;8009;50.070;8.232;2022-10-31T02:56:11;20.33;;;19.50;;
15816;SDS011;8009;50.070;8.232;2022-10-31T02:58:42;19.03;;;18.13;;
15816;SDS011;8009;50.070;8.232;2022-10-31T03:01:17;21.30;;;20.30;;
15816;SDS011;8009;50.070;8.232;2022-10-31T03:04:02;19.53;;;18.57;;
15816;SDS011;8009;50.070;8.232;2022-10-31T03:06:45;19.17;;;18.27;;
15816;SDS011;8009;50.070;8.232;2022-10-31T03:09:22;17.47;;;16.60;;
15816;SDS011;8009;50.070;8.232;2022-10-31T03:11:56;19.87;;;18.97;;
15816;SDS011;8009;50.070;8.232;2022-10-31T03:14:33;19.90;;;18.90;;
15816;SDS011;8009;50.070;8.232;2022-10-31T03:17:09;18.03;;;17.23;;
15816;SDS011;8009;50.070;8.232;2022-10-31T03:19:45;18.50;;;17.70;;
15816;SDS011;8009;50.070;8.232;2022-10-31T03:22:17;19.60;;;18.70;;
15816;SDS011;8009;50.070;8.232;2022-10-31T03:24:48;19.47;;;18.57;;
15816;SDS011;8009;50.070;8.232;2022-10-31T03:27:22;18.93;;;18.13;;
15816;SDS011;8009;50.070;8.232;2022-10-31T03:29:53;21.60;;;20.47;;
15816;SDS011;8009;50.070;8.232;2022-10-31T03:32:25;20.83;;;19.93;;
15816;SDS011;8009;50.070;8.232;2022-10-31T03:35:02;16.93;;;16.13;;
15816;SDS011;8009;50.070;8.232;2022-10-31T03:37:33;17.73;;;16.87;;
15816;SDS011;8009;50.070;8.232;2022-10-31T03:40:04;19.77;;;18.67;;
15816;SDS011;8009;50.070;8.232;2022-10-31T03:42:37;21.23;;;20.27;;
15816;SDS011;8009;50.070;8.232;2022-10-31T03:45:11;17.63;;;16.77;;
15816;SDS011;8009;50.070;8.232;2022-10-31T03:47:41;15.87;;;15.17;;
15816;SDS011;8009;50.070;8.232;2022-10-31T03:50:14;17.60;;;16.80;;
15816;SDS011;8009;50.070;8.232;2022-10-31T03:52:44;19.53;;;18.73;;
15816;SDS011;8009;50.070;8.232;2022-10-31T03:55:17;19.67;;;18.70;;
15816;SDS011;8009;50.070;8.232;2022-10-31T03:57:49;19.43;;;18.53;;
15816;SDS011;8009;50.070;8.232;2022-10-31T04:00:22;21.80;;;20.90;;
15816;SDS011;8009;50.070;8.232;2022-10-31T04:02:53;21.20;;;20.10;;
15816;SDS011;8009;50.070;8.232;2022-10-31T04:05:27;16.90;;;16.20;;
15816;SDS011;8009;50.070;8.232;2022-10-31T04:07:57;19.47;;;18.63;;
15816;SDS011;8009;50.070;8.232;2022-10-31T04:10:28;19.60;;;18.70;;
15816;SDS011;8009;50.070;8.232;2022-10-31T04:12:58;20.50;;;19.50;;
15816;SDS011;8009;50.070;8.232;2022-10-31T04:15:31;18.50;;;17.70;;
15816;SDS011;8009;50.070;8.232;2022-10-31T04:18:00;22.10;;;21.10;;
15816;SDS011;8009;50.070;8.232;2022-10-31T04:20:34;19.20;;;18.07;;
15816;SDS011;8009;50.070;8.232;2022-10-31T04:23:05;19.77;;;18.87;;
15816;SDS011;8009;50.070;8.232;2022-10-31T04:25:42;19.27;;;18.40;;
15816;SDS011;8009;50.070;8.232;2022-10-31T04:28:10;18.30;;;17.50;;
15816;SDS011;8009;50.070;8.232;2022-10-31T04:30:38;21.37;;;20.47;;
15816;SDS011;8009;50.070;8.232;2022-10-31T04:33:07;19.83;;;18.90;;
15816;SDS011;8009;50.070;8.232;2022-10-31T04:35:38;18.70;;;17.80;;
15816;SDS011;8009;50.070;8.232;2022-10-31T04:38:06;19.83;;;18.93;;
15816;SDS011;8009;50.070;8.232;2022-10-31T04:40:34;19.20;;;18.30;;
15816;SDS011;8009;50.070;8.232;2022-10-31T04:43:02;18.97;;;18.17;;
15816;SDS011;8009;50.070;8.232;2022-10-31T04:45:31;17.33;;;16.63;;
15816;SDS011;8009;50.070;8.232;2022-10-31T04:47:59;17.40;;;16.70;;
15816;SDS011;8009;50.070;8.232;2022-10-31T04:50:27;16.70;;;15.83;;
15816;SDS011;8009;50.070;8.232;2022-10-31T04:52:58;23.23;;;22.20;;
15816;SDS011;8009;50.070;8.232;2022-10-31T04:55:29;20.80;;;19.80;;
15816;SDS011;8009;50.070;8.232;2022-10-31T04:57:58;22.57;;;21.63;;
15816;SDS011;8009;50.070;8.232;2022-10-31T05:00:26;18.17;;;17.37;;
15816;SDS011;8009;50.070;8.232;2022-10-31T05:02:55;22.13;;;21.20;;
15816;SDS011;8009;50.070;8.232;2022-10-31T05:05:25;22.70;;;21.70;;
15816;SDS011;8009;50.070;8.232;2022-10-31T05:07:54;20.07;;;19.17;;
15816;SDS011;8009;50.070;8.232;2022-10-31T05:10:28;21.23;;;20.37;;
15816;SDS011;8009;50.070;8.232;2022-10-31T05:12:58;22.27;;;21.17;;
15816;SDS011;8009;50.070;8.232;2022-10-31T05:15:28;20.77;;;19.77;;
15816;SDS011;8009;50.070;8.232;2022-10-31T05:17:57;22.60;;;21.50;;
15816;SDS011;8009;50.070;8.232;2022-10-31T05:20:26;16.40;;;15.47;;
15816;SDS011;8009;50.070;8.232;2022-10-31T05:22:58;20.63;;;19.63;;
15816;SDS011;8009;50.070;8.232;2022-10-31T05:25:27;20.20;;;19.30;;
15816;SDS011;8009;50.070;8.232;2022-10-31T05:27:56;18.73;;;17.93;;
15816;SDS011;8009;50.070;8.232;2022-10-31T05:30:28;24.17;;;23.07;;
15816;SDS011;8009;50.070;8.232;2022-10-31T05:32:58;19.63;;;18.83;;
15816;SDS011;8009;50.070;8.232;2022-10-31T05:35:27;22.67;;;21.70;;
15816;SDS011;8009;50.070;8.232;2022-10-31T05:38:00;19.43;;;18.43;;
15816;SDS011;8009;50.070;8.232;2022-10-31T05:40:29;23.07;;;22.07;;
15816;SDS011;8009;50.070;8.232;2022-10-31T05:42:58;19.67;;;18.87;;
15816;SDS011;8009;50.070;8.232;2022-10-31T05:45:31;18.00;;;17.20;;
15816;SDS011;8009;50.070;8.232;2022-10-31T05:48:00;16.47;;;15.73;;
15816;SDS011;8009;50.070;8.232;2022-10-31T05:50:29;20.30;;;19.40;;
15816;SDS011;8009;50.070;8.232;2022-10-31T05:53:01;19.40;;;18.57;;
15816;SDS011;8009;50.070;8.232;2022-10-31T05:55:31;21.67;;;20.67;;
15816;SDS011;8009;50.070;8.232;2022-10-31T05:58:03;20.70;;;19.60;;
15816;SDS011;8009;50.070;8.232;2022-10-31T06:00:31;19.23;;;18.23;;
15816;SDS011;8009;50.070;8.232;2022-10-31T06:03:00;21.63;;;20.73;;
15816;SDS011;8009;50.070;8.232;2022-10-31T06:05:29;20.07;;;19.07;;
15816;SDS011;8009;50.070;8.232;2022-10-31T06:08:01;19.83;;;18.93;;
15816;SDS011;8009;50.070;8.232;2022-10-31T06:10:29;20.53;;;19.53;;
15816;SDS011;8009;50.070;8.232;2022-10-31T06:12:58;19.00;;;18.10;;
15816;SDS011;8009;50.070;8.232;2022-10-31T06:15:27;20.43;;;19.47;;
15816;SDS011;8009;50.070;8.232;2022-10-31T06:17:59;22.93;;;21.83;;
15816;SDS011;8009;50.070;8.232;2022-10-31T06:20:28;21.17;;;20.10;;
15816;SDS011;8009;50.070;8.232;2022-10-31T06:22:57;19.97;;;19.07;;
15816;SDS011;8009;50.070;8.232;2022-10-31T06:25:28;16.43;;;15.73;;
15816;SDS011;8009;50.070;8.232;2022-10-31T06:27:56;21.40;;;20.40;;
15816;SDS011;8009;50.070;8.232;2022-10-31T06:30:24;18.53;;;17.63;;
15816;SDS011;8009;50.070;8.232;2022-10-31T06:32:53;20.43;;;19.53;;
15816;SDS011;8009;50.070;8.232;2022-10-31T06:35:21;20.27;;;19.37;;
15816;SDS011;8009;50.070;8.232;2022-10-31T06:37:50;19.53;;;18.67;;
15816;SDS011;8009;50.070;8.232;2022-10-31T06:40:19;17.20;;;16.47;;
15816;SDS011;8009;50.070;8.232;2022-10-31T06:42:57;17.53;;;16.83;;
15816;SDS011;8009;50.070;8.232;2022-10-31T06:45:26;22.67;;;21.60;;
15816;SDS011;8009;50.070;8.232;2022-10-31T06:47:55;21.00;;;20.10;;
15816;SDS011;8009;50.070;8.232;2022-10-31T06:50:24;17.50;;;16.73;;
15816;SDS011;8009;50.070;8.232;2022-10-31T06:52:53;22.83;;;21.70;;
15816;SDS011;8009;50.070;8.232;2022-10-31T06:55:23;20.37;;;19.57;;
15816;SDS011;8009;50.070;8.232;2022-10-31T06:57:52;21.90;;;20.97;;
15816;SDS011;8009;50.070;8.232;2022-10-31T07:00:23;23.57;;;22.57;;
15816;SDS011;8009;50.070;8.232;2022-10-31T07:02:54;20.50;;;19.63;;
15816;SDS011;8009;50.070;8.232;2022-10-31T07:05:23;20.00;;;19.10;;
15816;SDS011;8009;50.070;8.232;2022-10-31T07:07:52;20.00;;;19.17;;
15816;SDS011;8009;50.070;8.232;2022-10-31T07:10:22;21.00;;;19.90;;
15816;SDS011;8009;50.070;8.232;2022-10-31T07:12:53;22.17;;;21.20;;
15816;SDS011;8009;50.070;8.232;2022-10-31T07:15:25;23.10;;;22.00;;
15816;SDS011;8009;50.070;8.232;2022-10-31T07:17:58;23.90;;;22.83;;
15816;SDS011;8009;50.070;8.232;2022-10-31T07:20:27;23.60;;;22.50;;
15816;SDS011;8009;50.070;8.232;2022-10-31T07:22:55;23.73;;;22.63;;
15816;SDS011;8009;50.070;8.232;2022-10-31T07:25:26;25.07;;;23.97;;
15816;SDS011;8009;50.070;8.232;2022-10-31T07:27:54;33.40;;;31.60;;
15816;SDS011;8009;50.070;8.232;2022-10-31T07:30:25;25.43;;;24.13;;
15816;SDS011;8009;50.070;8.232;2022-10-31T07:32:54;25.03;;;23.83;;
15816;SDS011;8009;50.070;8.232;2022-10-31T07:35:25;24.87;;;23.67;;
15816;SDS011;8009;50.070;8.232;2022-10-31T07:37:54;21.77;;;20.87;;
15816;SDS011;8009;50.070;8.232;2022-10-31T07:40:23;23.67;;;22.67;;
15816;SDS011;8009;50.070;8.232;2022-10-31T07:42:52;24.47;;;23.27;;
15816;SDS011;8009;50.070;8.232;2022-10-31T07:45:21;22.70;;;21.67;;
15816;SDS011;8009;50.070;8.232;2022-10-31T07:47:52;24.30;;;23.20;;
15816;SDS011;8009;50.070;8.232;2022-10-31T07:50:21;28.00;;;26.53;;
15816;SDS011;8009;50.070;8.232;2022-10-31T07:52:57;26.90;;;25.67;;
15816;SDS011;8009;50.070;8.232;2022-10-31T07:55:27;23.60;;;22.53;;
15816;SDS011;8009;50.070;8.232;2022-10-31T07:57:56;24.20;;;23.10;;
15816;SDS011;8009;50.070;8.232;2022-10-31T08:00:25;25.70;;;24.50;;
15816;SDS011;8009;50.070;8.232;2022-10-31T08:03:00;24.07;;;22.67;;
15816;SDS011;8009;50.070;8.232;2022-10-31T08:05:30;21.83;;;20.93;;
15816;SDS011;8009;50.070;8.232;2022-10-31T08:07:59;23.53;;;22.27;;
15816;SDS011;8009;50.070;8.232;2022-10-31T08:10:27;22.43;;;21.33;;
15816;SDS011;8009;50.070;8.232;2022-10-31T08:12:56;21.87;;;20.83;;
15816;SDS011;8009;50.070;8.232;2022-10-31T08:15:26;22.93;;;21.70;;
15816;SDS011;8009;50.070;8.232;2022-10-31T08:17:54;25.33;;;24.23;;
15816;SDS011;8009;50.070;8.232;2022-10-31T08:20:25;24.03;;;22.77;;
15816;SDS011;8009;50.070;8.232;2022-10-31T08:22:57;22.53;;;21.50;;
15816;SDS011;8009;50.070;8.232;2022-10-31T08:25:27;21.00;;;19.93;;
15816;SDS011;8009;50.070;8.232;2022-10-31T08:27:57;24.67;;;23.63;;
15816;SDS011;8009;50.070;8.232;2022-10-31T08:30:26;23.03;;;22.03;;
15816;SDS011;8009;50.070;8.232;2022-10-31T08:32:57;23.60;;;22.47;;
15816;SDS011;8009;50.070;8.232;2022-10-31T08:35:29;23.97;;;22.57;;
15816;SDS011;8009;50.070;8.232;2022-10-31T08:37:58;22.60;;;21.23;;
15816;SDS011;8009;50.070;8.232;2022-10-31T08:40:27;25.70;;;24.60;;
15816;SDS011;8009;50.070;8.232;2022-10-31T08:42:58;27.23;;;25.93;;
15816;SDS011;8009;50.070;8.232;2022-10-31T08:45:27;24.53;;;23.50;;
15816;SDS011;8009;50.070;8.232;2022-10-31T08:48:02;26.90;;;25.63;;
15816;SDS011;8009;50.070;8.232;2022-10-31T08:50:35;25.63;;;24.53;;
15816;SDS011;8009;50.070;8.232;2022-10-31T08:53:05;27.50;;;26.30;;
15816;SDS011;8009;50.070;8.232;2022-10-31T08:55:34;21.23;;;20.23;;
15816;SDS011;8009;50.070;8.232;2022-10-31T08:58:04;27.47;;;26.10;;
15816;SDS011;8009;50.070;8.232;2022-10-31T09:00:34;28.67;;;27.47;;
15816;SDS011;8009;50.070;8.232;2022-10-31T09:03:03;26.67;;;25.37;;
15816;SDS011;8009;50.070;8.232;2022-10-31T09:05:36;29.80;;;28.33;;
15816;SDS011;8009;50.070;8.232;2022-10-31T09:08:05;28.03;;;26.73;;
15816;SDS011;8009;50.070;8.232;2022-10-31T09:10:35;26.50;;;25.30;;
15816;SDS011;8009;50.070;8.232;2022-10-31T09:13:05;27.20;;;25.83;;
15816;SDS011;8009;50.070;8.232;2022-10-31T09:15:35;27.27;;;26.07;;
15816;SDS011;8009;50.070;8.232;2022-10-31T09:18:09;18.03;;;17.23;;
15816;SDS011;8009;50.070;8.232;2022-10-31T09:20:44;22.97;;;21.97;;
15816;SDS011;8009;50.070;8.232;2022-10-31T09:23:14;23.63;;;22.53;;
15816;SDS011;8009;50.070;8.232;2022-10-31T09:25:43;24.10;;;23.00;;
15816;SDS011;8009;50.070;8.232;2022-10-31T09:28:13;22.90;;;21.90;;
15816;SDS011;8009;50.070;8.232;2022-10-31T09:30:45;27.03;;;25.93;;
15816;SDS011;8009;50.070;8.232;2022-10-31T09:33:14;28.47;;;27.17;;
15816;SDS011;8009;50.070;8.232;2022-10-31T09:35:45;24.57;;;23.53;;
15816;SDS011;8009;50.070;8.232;2022-10-31T09:38:14;24.27;;;23.23;;
15816;SDS011;8009;50.070;8.232;2022-10-31T09:40:44;23.30;;;22.20;;
15816;SDS011;8009;50.070;8.232;2022-10-31T09:43:15;24.03;;;22.97;;
15816;SDS011;8009;50.070;8.232;2022-10-31T09:45:56;26.27;;;25.03;;
15816;SDS011;8009;50.070;8.232;2022-10-31T09:48:36;21.77;;;20.43;;
15816;SDS011;8009;50.070;8.232;2022-10-31T09:51:15;24.37;;;23.13;;
15816;SDS011;8009;50.070;8.232;2022-10-31T09:53:47;26.13;;;24.93;;
15816;SDS011;8009;50.070;8.232;2022-10-31T09:56:18;23.50;;;22.40;;
15816;SDS011;8009;50.070;8.232;2022-10-31T09:58:53;25.07;;;23.97;;
15816;SDS011;8009;50.070;8.232;2022-10-31T10:01:29;21.15;;;20.05;;
15816;SDS011;8009;50.070;8.232;2022-10-31T10:04:03;24.40;;;23.30;;
15816;SDS011;8009;50.070;8.232;2022-10-31T10:06:42;23.90;;;22.87;;
15816;SDS011;8009;50.070;8.232;2022-10-31T10:09:24;23.93;;;22.73;;
15816;SDS011;8009;50.070;8.232;2022-10-31T10:11:55;22.23;;;21.03;;
15816;SDS011;8009;50.070;8.232;2022-10-31T10:14:34;24.07;;;22.80;;
15816;SDS011;8009;50.070;8.232;2022-10-31T10:17:17;23.10;;;22.10;;
15816;SDS011;8009;50.070;8.232;2022-10-31T10:20:05;23.27;;;22.17;;
15816;SDS011;8009;50.070;8.232;2022-10-31T10:22:50;22.20;;;21.20;;
15816;SDS011;8009;50.070;8.232;2022-10-31T10:25:24;20.85;;;19.85;;
15816;SDS011;8009;50.070;8.232;2022-10-31T10:27:59;16.23;;;15.43;;
15816;SDS011;8009;50.070;8.232;2022-10-31T10:30:36;22.00;;;20.47;;
15816;SDS011;8009;50.070;8.232;2022-10-31T10:33:10;19.73;;;18.63;;
15816;SDS011;8009;50.070;8.232;2022-10-31T10:35:42;17.67;;;16.53;;
15816;SDS011;8009;50.070;8.232;2022-10-31T10:38:19;18.67;;;17.77;;
15816;SDS011;8009;50.070;8.232;2022-10-31T10:40:52;19.80;;;18.90;;
15816;SDS011;8009;50.070;8.232;2022-10-31T10:43:23;18.80;;;17.80;;
15816;SDS011;8009;50.070;8.232;2022-10-31T10:45:59;18.83;;;17.83;;
15816;SDS011;8009;50.070;8.232;2022-10-31T10:48:54;21.30;;;19.87;;
15816;SDS011;8009;50.070;8.232;2022-10-31T10:51:28;20.77;;;19.63;;
15816;SDS011;8009;50.070;8.232;2022-10-31T10:57:22;19.07;;;18.17;;
15816;SDS011;8009;50.070;8.232;2022-10-31T10:59:57;20.70;;;19.67;;
15816;SDS011;8009;50.070;8.232;2022-10-31T11:02:31;18.90;;;17.90;;
15816;SDS011;8009;50.070;8.232;2022-10-31T11:05:00;20.20;;;19.10;;
15816;SDS011;8009;50.070;8.232;2022-10-31T11:07:39;19.73;;;18.83;;
15816;SDS011;8009;50.070;8.232;2022-10-31T11:10:14;18.93;;;17.90;;
15816;SDS011;8009;50.070;8.232;2022-10-31T11:12:45;20.97;;;19.67;;
15816;SDS011;8009;50.070;8.232;2022-10-31T11:15:25;19.27;;;18.27;;
15816;SDS011;8009;50.070;8.232;2022-10-31T11:17:55;21.80;;;20.53;;
15816;SDS011;8009;50.070;8.232;2022-10-31T11:20:29;22.70;;;21.37;;
15816;SDS011;8009;50.070;8.232;2022-10-31T11:23:04;19.10;;;18.30;;
15816;SDS011;8009;50.070;8.232;2022-10-31T11:25:52;17.87;;;16.97;;
15816;SDS011;8009;50.070;8.232;2022-10-31T11:28:23;16.77;;;15.97;;
15816;SDS011;8009;50.070;8.232;2022-10-31T11:30:55;17.97;;;16.87;;
15816;SDS011;8009;50.070;8.232;2022-10-31T11:33:27;19.00;;;17.87;;
15816;SDS011;8009;50.070;8.232;2022-10-31T11:35:59;19.00;;;17.83;;
15816;SDS011;8009;50.070;8.232;2022-10-31T11:38:31;16.90;;;16.10;;
15816;SDS011;8009;50.070;8.232;2022-10-31T11:41:09;18.53;;;17.33;;
15816;SDS011;8009;50.070;8.232;2022-10-31T11:43:45;16.20;;;15.40;;
15816;SDS011;8009;50.070;8.232;2022-10-31T11:46:18;16.13;;;15.13;;
15816;SDS011;8009;50.070;8.232;2022-10-31T11:48:49;18.10;;;17.30;;
15816;SDS011;8009;50.070;8.232;2022-10-31T11:51:21;14.87;;;14.10;;
15816;SDS011;8009;50.070;8.232;2022-10-31T11:53:52;17.23;;;16.43;;
15816;SDS011;8009;50.070;8.232;2022-10-31T11:56:26;17.17;;;16.40;;
15816;SDS011;8009;50.070;8.232;2022-10-31T11:58:54;17.43;;;16.63;;
15816;SDS011;8009;50.070;8.232;2022-10-31T12:01:24;16.67;;;15.87;;
15816;SDS011;8009;50.070;8.232;2022-10-31T12:03:54;17.27;;;16.37;;
15816;SDS011;8009;50.070;8.232;2022-10-31T12:06:32;16.77;;;16.07;;
15816;SDS011;8009;50.070;8.232;2022-10-31T12:09:04;18.53;;;17.63;;
15816;SDS011;8009;50.070;8.232;2022-10-31T12:11:51;17.53;;;16.73;;
15816;SDS011;8009;50.070;8.232;2022-10-31T12:14:30;19.40;;;18.50;;
15816;SDS011;8009;50.070;8.232;2022-10-31T12:17:05;20.50;;;19.50;;
15816;SDS011;8009;50.070;8.232;2022-10-31T12:19:45;21.10;;;20.10;;
15816;SDS011;8009;50.070;8.232;2022-10-31T12:22:22;21.90;;;20.93;;
15816;SDS011;8009;50.070;8.232;2022-10-31T12:25:04;24.87;;;23.77;;
15816;SDS011;8009;50.070;8.232;2022-10-31T12:27:54;24.00;;;23.00;;
15816;SDS011;8009;50.070;8.232;2022-10-31T12:30:31;29.07;;;27.77;;
15816;SDS011;8009;50.070;8.232;2022-10-31T12:33:13;29.43;;;28.07;;
15816;SDS011;8009;50.070;8.232;2022-10-31T12:35:55;27.53;;;26.30;;
15816;SDS011;8009;50.070;8.232;2022-10-31T12:38:38;30.57;;;29.27;;
15816;SDS011;8009;50.070;8.232;2022-10-31T12:41:31;28.30;;;27.07;;
15816;SDS011;8009;50.070;8.232;2022-10-31T12:44:18;34.43;;;32.73;;
15816;SDS011;8009;50.070;8.232;2022-10-31T12:47:07;38.07;;;36.37;;
15816;SDS011;8009;50.070;8.232;2022-10-31T12:49:51;35.97;;;34.33;;
15816;SDS011;8009;50.070;8.232;2022-10-31T12:52:28;40.63;;;38.73;;
15816;SDS011;8009;50.070;8.232;2022-10-31T12:55:12;42.30;;;40.47;;
15816;SDS011;8009;50.070;8.232;2022-10-31T12:57:50;45.93;;;44.00;;
15816;SDS011;8009;50.070;8.232;2022-10-31T13:00:24;49.43;;;47.23;;
15816;SDS011;8009;50.070;8.232;2022-10-31T13:02:56;43.83;;;41.93;;
15816;SDS011;8009;50.070;8.232;2022-10-31T13:05:28;40.90;;;38.90;;
15816;SDS011;8009;50.070;8.232;2022-10-31T13:08:00;36.50;;;34.90;;
15816;SDS011;8009;50.070;8.232;2022-10-31T13:10:34;33.73;;;32.23;;
15816;SDS011;8009;50.070;8.232;2022-10-31T13:13:10;31.83;;;30.27;;
15816;SDS011;8009;50.070;8.232;2022-10-31T13:15:48;30.87;;;29.37;;
15816;SDS011;8009;50.070;8.232;2022-10-31T13:18:22;28.30;;;27.00;;
15816;SDS011;8009;50.070;8.232;2022-10-31T13:20:55;30.57;;;29.17;;
15816;SDS011;8009;50.070;8.232;2022-10-31T13:23:27;27.93;;;26.47;;
15816;SDS011;8009;50.070;8.232;2022-10-31T13:25:59;28.77;;;27.47;;
15816;SDS011;8009;50.070;8.232;2022-10-31T13:28:33;27.50;;;26.20;;
15816;SDS011;8009;50.070;8.232;2022-10-31T13:31:09;25.67;;;24.53;;
15816;SDS011;8009;50.070;8.232;2022-10-31T13:33:38;28.23;;;26.93;;
15816;SDS011;8009;50.070;8.232;2022-10-31T13:36:14;27.93;;;26.73;;
15816;SDS011;8009;50.070;8.232;2022-10-31T13:38:50;29.03;;;27.73;;
15816;SDS011;8009;50.070;8.232;2022-10-31T13:41:27;27.33;;;26.13;;
15816;SDS011;8009;50.070;8.232;2022-10-31T13:44:04;29.33;;;27.97;;
15816;SDS011;8009;50.070;8.232;2022-10-31T13:46:43;29.27;;;28.00;;
15816;SDS011;8009;50.070;8.232;2022-10-31T13:49:23;31.20;;;29.70;;
15816;SDS011;8009;50.070;8.232;2022-10-31T13:52:04;32.87;;;31.47;;
15816;SDS011;8009;50.070;8.232;2022-10-31T13:54:40;31.77;;;30.37;;
15816;SDS011;8009;50.070;8.232;2022-10-31T13:57:15;33.70;;;32.10;;
15816;SDS011;8009;50.070;8.232;2022-10-31T13:59:50;37.37;;;35.77;;
15816;SDS011;8009;50.070;8.232;2022-10-31T14:02:25;33.83;;;32.33;;
15816;SDS011;8009;50.070;8.232;2022-10-31T14:04:56;30.37;;;29.00;;
15816;SDS011;8009;50.070;8.232;2022-10-31T14:07:27;29.97;;;28.67;;
15816;SDS011;8009;50.070;8.232;2022-10-31T14:09:59;27.30;;;26.20;;
15816;SDS011;8009;50.070;8.232;2022-10-31T14:12:31;27.17;;;25.87;;
15816;SDS011;8009;50.070;8.232;2022-10-31T14:15:05;27.57;;;26.27;;
15816;SDS011;8009;50.070;8.232;2022-10-31T14:17:47;31.27;;;29.87;;
15816;SDS011;8009;50.070;8.232;2022-10-31T14:20:34;32.00;;;30.53;;
15816;SDS011;8009;50.070;8.232;2022-10-31T14:23:13;38.40;;;36.57;;
15816;SDS011;8009;50.070;8.232;2022-10-31T14:26:17;27.38;;;26.10;;
15816;SDS011;8009;50.070;8.232;2022-10-31T14:28:48;28.27;;;27.00;;
15816;SDS011;8009;50.070;8.232;2022-10-31T14:31:27;29.37;;;27.97;;
15816;SDS011;8009;50.070;8.232;2022-10-31T14:34:05;27.43;;;25.97;;
15816;SDS011;8009;50.070;8.232;2022-10-31T14:36:56;30.23;;;28.83;;
15816;SDS011;8009;50.070;8.232;2022-10-31T14:39:41;34.63;;;33.03;;
15816;SDS011;8009;50.070;8.232;2022-10-31T14:42:24;40.67;;;38.77;;
15816;SDS011;8009;50.070;8.232;2022-10-31T14:45:15;40.97;;;38.93;;
15816;SDS011;8009;50.070;8.232;2022-10-31T14:48:00;36.35;;;34.65;;
15816;SDS011;8009;50.070;8.232;2022-10-31T14:50:44;38.90;;;37.20;;
15816;SDS011;8009;50.070;8.232;2022-10-31T14:53:18;38.17;;;36.57;;
15816;SDS011;8009;50.070;8.232;2022-10-31T14:55:49;32.80;;;31.30;;
15816;SDS011;8009;50.070;8.232;2022-10-31T14:58:23;28.50;;;27.20;;
15816;SDS011;8009;50.070;8.232;2022-10-31T15:00:56;28.03;;;26.90;;
15816;SDS011;8009;50.070;8.232;2022-10-31T15:03:27;28.03;;;26.83;;
15816;SDS011;8009;50.070;8.232;2022-10-31T15:06:02;31.43;;;30.03;;
15816;SDS011;8009;50.070;8.232;2022-10-31T15:08:34;31.20;;;29.70;;
15816;SDS011;8009;50.070;8.232;2022-10-31T15:11:12;28.80;;;27.40;;